sensor_id;sensor_type;location;lat;lon;timestamp;pressure;altitude;pressure_sealevel;temperature;humidity
6435;BME280;3250;42.694;23.278;2023-12-04T00:02:10;95350.13;;;3.44;66.61
6435;BME280;3250;42.694;23.278;2023-12-04T00:04:35;95340.19;;;3.39;65.44
6435;BME280;3250;42.694;23.278;2023-12-04T00:07:01;95342.63;;;3.40;64.90
6435;BME280;3250;42.694;23.278;2023-12-04T00:09:26;95346.41;;;3.20;65.47
6435;BME280;3250;42.694;23.278;2023-12-04T00:11:52;95343.50;;;3.23;65.88
6435;BME280;3250;42.694;23.278;2023-12-04T00:14:18;95349.38;;;3.25;66.09
6435;BME280;3250;42.694;23.278;2023-12-04T00:16:43;95348.84;;;3.22;66.25
6435;BME280;3250;42.694;23.278;2023-12-04T00:19:09;95351.50;;;3.30;66.80
6435;BME280;3250;42.694;23.278;2023-12-04T00:21:34;95358.88;;;3.34;65.73
6435;BME280;3250;42.694;23.278;2023-12-04T00:24:00;95359.16;;;3.31;65.54
6435;BME280;3250;42.694;23.278;2023-12-04T00:26:25;95367.78;;;3.32;65.27
6435;BME280;3250;42.694;23.278;2023-12-04T00:28:51;95373.13;;;3.30;64.32
6435;BME280;3250;42.694;23.278;2023-12-04T00:31:16;95376.88;;;3.28;63.71
6435;BME280;3250;42.694;23.278;2023-12-04T00:33:42;95383.06;;;3.27;63.25
6435;BME280;3250;42.694;23.278;2023-12-04T00:36:08;95380.88;;;3.22;63.98
6435;BME280;3250;42.694;23.278;2023-12-04T00:38:33;95382.53;;;3.23;64.81
6435;BME280;3250;42.694;23.278;2023-12-04T00:40:59;95385.81;;;3.25;64.74
6435;BME280;3250;42.694;23.278;2023-12-04T00:43:24;95389.50;;;3.23;64.06
6435;BME280;3250;42.694;23.278;2023-12-04T00:45:50;95394.72;;;3.23;64.55
6435;BME280;3250;42.694;23.278;2023-12-04T00:48:15;95392.94;;;3.23;64.24
6435;BME280;3250;42.694;23.278;2023-12-04T00:50:41;95392.13;;;3.23;64.53
6435;BME280;3250;42.694;23.278;2023-12-04T00:53:06;95393.91;;;3.22;64.01
6435;BME280;3250;42.694;23.278;2023-12-04T00:55:32;95391.09;;;3.16;63.84
6435;BME280;3250;42.694;23.278;2023-12-04T00:57:57;95390.28;;;3.15;64.19
6435;BME280;3250;42.694;23.278;2023-12-04T01:00:23;95395.50;;;2.97;64.35
6435;BME280;3250;42.694;23.278;2023-12-04T01:02:48;95392.41;;;2.94;64.13
6435;BME280;3250;42.694;23.278;2023-12-04T01:05:14;95404.94;;;2.98;64.72
6435;BME280;3250;42.694;23.278;2023-12-04T01:07:39;95409.31;;;2.98;64.26
6435;BME280;3250;42.694;23.278;2023-12-04T01:10:05;95403.59;;;2.94;64.01
6435;BME280;3250;42.694;23.278;2023-12-04T01:12:30;95409.94;;;2.92;63.70
6435;BME280;3250;42.694;23.278;2023-12-04T01:14:56;95409.19;;;2.99;64.00
6435;BME280;3250;42.694;23.278;2023-12-04T01:17:21;95410.22;;;3.07;63.73
6435;BME280;3250;42.694;23.278;2023-12-04T01:19:47;95408.44;;;3.07;64.18
6435;BME280;3250;42.694;23.278;2023-12-04T01:22:12;95405.28;;;3.03;64.34
6435;BME280;3250;42.694;23.278;2023-12-04T01:24:38;95415.75;;;3.12;63.26
6435;BME280;3250;42.694;23.278;2023-12-04T01:27:03;95414.50;;;3.16;63.40
6435;BME280;3250;42.694;23.278;2023-12-04T01:29:29;95413.34;;;3.10;62.79
6435;BME280;3250;42.694;23.278;2023-12-04T01:31:57;95413.78;;;3.06;62.43
6435;BME280;3250;42.694;23.278;2023-12-04T01:34:22;95421.28;;;3.09;63.07
6435;BME280;3250;42.694;23.278;2023-12-04T01:36:48;95417.41;;;3.13;62.81
6435;BME280;3250;42.694;23.278;2023-12-04T01:39:13;95414.34;;;3.17;63.00
6435;BME280;3250;42.694;23.278;2023-12-04T01:41:39;95410.78;;;3.18;63.08
6435;BME280;3250;42.694;23.278;2023-12-04T01:44:05;95415.66;;;3.21;62.86
6435;BME280;3250;42.694;23.278;2023-12-04T01:46:31;95418.59;;;3.18;63.21
6435;BME280;3250;42.694;23.278;2023-12-04T01:48:56;95400.47;;;3.09;62.20
6435;BME280;3250;42.694;23.278;2023-12-04T01:51:23;95417.03;;;3.08;62.70
6435;BME280;3250;42.694;23.278;2023-12-04T01:53:49;95410.22;;;3.07;63.35
6435;BME280;3250;42.694;23.278;2023-12-04T01:56:15;95413.91;;;3.04;63.04
6435;BME280;3250;42.694;23.278;2023-12-04T01:58:42;95414.88;;;3.03;63.59
6435;BME280;3250;42.694;23.278;2023-12-04T02:01:09;95413.34;;;3.10;63.19
6435;BME280;3250;42.694;23.278;2023-12-04T02:03:36;95418.81;;;3.07;63.75
6435;BME280;3250;42.694;23.278;2023-12-04T02:06:01;95431.69;;;3.09;63.91
6435;BME280;3250;42.694;23.278;2023-12-04T02:08:29;95417.19;;;3.06;63.55
6435;BME280;3250;42.694;23.278;2023-12-04T02:10:55;95423.16;;;2.98;63.34
6435;BME280;3250;42.694;23.278;2023-12-04T02:13:21;95424.41;;;2.94;63.62
6435;BME280;3250;42.694;23.278;2023-12-04T02:15:49;95423.63;;;2.94;63.36
6435;BME280;3250;42.694;23.278;2023-12-04T02:18:17;95431.03;;;2.89;63.33
6435;BME280;3250;42.694;23.278;2023-12-04T02:20:43;95406.81;;;2.71;64.31
6435;BME280;3250;42.694;23.278;2023-12-04T02:23:09;95438.22;;;2.95;63.49
6435;BME280;3250;42.694;23.278;2023-12-04T02:25:34;95437.41;;;2.94;63.84
6435;BME280;3250;42.694;23.278;2023-12-04T02:28:02;95446.56;;;2.98;63.99
6435;BME280;3250;42.694;23.278;2023-12-04T02:30:31;95425.91;;;2.79;63.28
6435;BME280;3250;42.694;23.278;2023-12-04T02:33:02;95442.91;;;2.74;63.33
6435;BME280;3250;42.694;23.278;2023-12-04T02:35:31;95444.63;;;2.65;63.59
6435;BME280;3250;42.694;23.278;2023-12-04T02:37:58;95444.97;;;2.52;63.99
6435;BME280;3250;42.694;23.278;2023-12-04T02:40:25;95439.34;;;2.57;64.05
6435;BME280;3250;42.694;23.278;2023-12-04T02:42:51;95436.16;;;2.63;64.34
6435;BME280;3250;42.694;23.278;2023-12-04T02:45:16;95442.44;;;2.60;63.31
6435;BME280;3250;42.694;23.278;2023-12-04T02:47:42;95452.47;;;2.55;62.90
6435;BME280;3250;42.694;23.278;2023-12-04T02:50:07;95455.38;;;2.52;63.31
6435;BME280;3250;42.694;23.278;2023-12-04T02:52:33;95448.31;;;2.45;63.52
6435;BME280;3250;42.694;23.278;2023-12-04T02:54:58;95446.06;;;2.32;64.09
6435;BME280;3250;42.694;23.278;2023-12-04T02:57:24;95454.06;;;2.21;64.25
6435;BME280;3250;42.694;23.278;2023-12-04T02:59:49;95452.31;;;2.12;64.87
6435;BME280;3250;42.694;23.278;2023-12-04T03:02:15;95448.50;;;2.16;64.76
6435;BME280;3250;42.694;23.278;2023-12-04T03:04:40;95453.00;;;2.14;65.15
6435;BME280;3250;42.694;23.278;2023-12-04T03:07:06;95454.09;;;2.11;64.58
6435;BME280;3250;42.694;23.278;2023-12-04T03:09:31;95453.03;;;2.04;64.63
6435;BME280;3250;42.694;23.278;2023-12-04T03:11:57;95455.09;;;2.01;64.70
6435;BME280;3250;42.694;23.278;2023-12-04T03:14:22;95454.25;;;2.10;65.38
6435;BME280;3250;42.694;23.278;2023-12-04T03:16:49;95456.06;;;2.00;65.56
6435;BME280;3250;42.694;23.278;2023-12-04T03:19:14;95459.34;;;2.02;65.54
6435;BME280;3250;42.694;23.278;2023-12-04T03:21:40;95456.38;;;1.97;65.41
6435;BME280;3250;42.694;23.278;2023-12-04T03:24:05;95461.69;;;1.95;65.18
6435;BME280;3250;42.694;23.278;2023-12-04T03:26:31;95464.56;;;1.92;65.10
6435;BME280;3250;42.694;23.278;2023-12-04T03:28:56;95464.97;;;1.97;64.95
6435;BME280;3250;42.694;23.278;2023-12-04T03:31:23;95455.31;;;1.89;65.43
6435;BME280;3250;42.694;23.278;2023-12-04T03:33:48;95461.00;;;1.93;65.29
6435;BME280;3250;42.694;23.278;2023-12-04T03:36:14;95466.75;;;1.97;65.21
6435;BME280;3250;42.694;23.278;2023-12-04T03:38:39;95457.72;;;1.91;64.93
6435;BME280;3250;42.694;23.278;2023-12-04T03:41:05;95450.56;;;1.75;65.13
6435;BME280;3250;42.694;23.278;2023-12-04T03:43:30;95470.78;;;1.81;65.21
6435;BME280;3250;42.694;23.278;2023-12-04T03:45:55;95476.91;;;1.80;64.62
6435;BME280;3250;42.694;23.278;2023-12-04T03:48:21;95471.31;;;1.75;65.30
6435;BME280;3250;42.694;23.278;2023-12-04T03:50:46;95485.53;;;1.81;65.05
6435;BME280;3250;42.694;23.278;2023-12-04T03:53:12;95488.78;;;1.83;65.19
6435;BME280;3250;42.694;23.278;2023-12-04T03:55:38;95483.84;;;1.89;65.14
6435;BME280;3250;42.694;23.278;2023-12-04T03:58:03;95467.63;;;1.78;65.16
6435;BME280;3250;42.694;23.278;2023-12-04T04:00:29;95481.66;;;1.85;64.85
6435;BME280;3250;42.694;23.278;2023-12-04T04:02:54;95484.97;;;1.77;64.71
6435;BME280;3250;42.694;23.278;2023-12-04T04:05:20;95484.97;;;1.77;64.53
6435;BME280;3250;42.694;23.278;2023-12-04T04:07:45;95484.44;;;1.74;64.90
6435;BME280;3250;42.694;23.278;2023-12-04T04:10:11;95488.66;;;1.75;65.07
6435;BME280;3250;42.694;23.278;2023-12-04T04:12:37;95486.50;;;1.70;64.70
6435;BME280;3250;42.694;23.278;2023-12-04T04:15:03;95491.97;;;1.67;65.41
6435;BME280;3250;42.694;23.278;2023-12-04T04:17:28;95499.38;;;1.62;64.96
6435;BME280;3250;42.694;23.278;2023-12-04T04:19:54;95499.06;;;1.65;64.58
6435;BME280;3250;42.694;23.278;2023-12-04T04:22:21;95489.28;;;1.49;64.41
6435;BME280;3250;42.694;23.278;2023-12-04T04:24:47;95502.78;;;1.53;65.24
6435;BME280;3250;42.694;23.278;2023-12-04T04:27:13;95503.75;;;1.42;65.18
6435;BME280;3250;42.694;23.278;2023-12-04T04:29:38;95510.19;;;1.38;64.95
6435;BME280;3250;42.694;23.278;2023-12-04T04:32:04;95506.22;;;1.34;65.10
6435;BME280;3250;42.694;23.278;2023-12-04T04:34:29;95484.16;;;1.21;64.99
6435;BME280;3250;42.694;23.278;2023-12-04T04:36:55;95512.38;;;1.43;65.23
6435;BME280;3250;42.694;23.278;2023-12-04T04:39:20;95511.78;;;1.49;65.01
6435;BME280;3250;42.694;23.278;2023-12-04T04:41:46;95508.94;;;1.52;64.49
6435;BME280;3250;42.694;23.278;2023-12-04T04:44:11;95513.19;;;1.43;64.91
6435;BME280;3250;42.694;23.278;2023-12-04T04:46:37;95522.47;;;1.46;64.74
6435;BME280;3250;42.694;23.278;2023-12-04T04:49:02;95518.94;;;1.47;64.93
6435;BME280;3250;42.694;23.278;2023-12-04T04:51:32;95521.91;;;1.42;63.97
6435;BME280;3250;42.694;23.278;2023-12-04T04:53:57;95521.78;;;1.44;64.88
6435;BME280;3250;42.694;23.278;2023-12-04T04:56:23;95524.63;;;1.41;64.24
6435;BME280;3250;42.694;23.278;2023-12-04T04:58:48;95530.25;;;1.46;64.51
6435;BME280;3250;42.694;23.278;2023-12-04T05:01:14;95530.50;;;1.52;64.01
6435;BME280;3250;42.694;23.278;2023-12-04T05:03:40;95532.28;;;1.52;64.21
6435;BME280;3250;42.694;23.278;2023-12-04T05:06:05;95525.84;;;1.56;64.38
6435;BME280;3250;42.694;23.278;2023-12-04T05:08:31;95530.50;;;1.52;63.84
6435;BME280;3250;42.694;23.278;2023-12-04T05:10:56;95529.56;;;1.54;63.09
6435;BME280;3250;42.694;23.278;2023-12-04T05:13:22;95526.41;;;1.50;64.32
6435;BME280;3250;42.694;23.278;2023-12-04T05:15:47;95530.25;;;1.56;63.85
6435;BME280;3250;42.694;23.278;2023-12-04T05:18:13;95535.69;;;1.52;63.91
6435;BME280;3250;42.694;23.278;2023-12-04T05:20:38;95536.66;;;1.51;64.20
6435;BME280;3250;42.694;23.278;2023-12-04T05:23:04;95538.03;;;1.46;63.99
6435;BME280;3250;42.694;23.278;2023-12-04T05:25:29;95530.00;;;1.20;64.90
6435;BME280;3250;42.694;23.278;2023-12-04T05:27:55;95535.03;;;1.02;65.19
6435;BME280;3250;42.694;23.278;2023-12-04T05:30:20;95535.31;;;0.99;65.02
6435;BME280;3250;42.694;23.278;2023-12-04T05:32:45;95520.69;;;0.98;65.48
6435;BME280;3250;42.694;23.278;2023-12-04T05:35:11;95519.34;;;0.94;65.85
6435;BME280;3250;42.694;23.278;2023-12-04T05:37:36;95542.13;;;1.10;64.88
6435;BME280;3250;42.694;23.278;2023-12-04T05:40:02;95549.09;;;1.09;65.18
6435;BME280;3250;42.694;23.278;2023-12-04T05:42:30;95550.16;;;1.07;66.09
6435;BME280;3250;42.694;23.278;2023-12-04T05:44:55;95513.47;;;0.92;65.97
6435;BME280;3250;42.694;23.278;2023-12-04T05:47:22;95537.47;;;1.13;65.35
6435;BME280;3250;42.694;23.278;2023-12-04T05:49:48;95547.03;;;1.23;66.10
6435;BME280;3250;42.694;23.278;2023-12-04T05:52:13;95549.09;;;1.29;65.93
6435;BME280;3250;42.694;23.278;2023-12-04T05:54:39;95557.16;;;1.35;66.07
6435;BME280;3250;42.694;23.278;2023-12-04T05:57:04;95556.31;;;1.35;65.18
6435;BME280;3250;42.694;23.278;2023-12-04T05:59:30;95555.38;;;1.26;65.40
6435;BME280;3250;42.694;23.278;2023-12-04T06:01:55;95551.41;;;1.32;65.91
6435;BME280;3250;42.694;23.278;2023-12-04T06:04:21;95556.06;;;1.38;66.17
6435;BME280;3250;42.694;23.278;2023-12-04T06:06:48;95559.31;;;1.40;65.83
6435;BME280;3250;42.694;23.278;2023-12-04T06:09:13;95559.75;;;1.45;65.98
6435;BME280;3250;42.694;23.278;2023-12-04T06:11:41;95564.66;;;1.29;65.11
6435;BME280;3250;42.694;23.278;2023-12-04T06:14:07;95568.59;;;1.33;66.11
6435;BME280;3250;42.694;23.278;2023-12-04T06:16:32;95565.31;;;1.40;65.43
6435;BME280;3250;42.694;23.278;2023-12-04T06:18:58;95566.13;;;1.50;65.62
6435;BME280;3250;42.694;23.278;2023-12-04T06:21:23;95572.94;;;1.71;65.61
6435;BME280;3250;42.694;23.278;2023-12-04T06:23:49;95564.03;;;1.83;65.49
6435;BME280;3250;42.694;23.278;2023-12-04T06:26:15;95570.44;;;1.98;64.65
6435;BME280;3250;42.694;23.278;2023-12-04T06:28:40;95578.19;;;2.08;64.30
6435;BME280;3250;42.694;23.278;2023-12-04T06:31:06;95589.47;;;2.26;63.51
6435;BME280;3250;42.694;23.278;2023-12-04T06:33:32;95576.19;;;2.39;62.86
6435;BME280;3250;42.694;23.278;2023-12-04T06:35:58;95579.13;;;2.53;62.98
6435;BME280;3250;42.694;23.278;2023-12-04T06:38:24;95585.78;;;2.65;62.88
6435;BME280;3250;42.694;23.278;2023-12-04T06:40:50;95584.38;;;2.71;61.95
6435;BME280;3250;42.694;23.278;2023-12-04T06:43:16;95581.25;;;2.68;61.13
6435;BME280;3250;42.694;23.278;2023-12-04T06:45:44;95597.59;;;2.78;61.65
6435;BME280;3250;42.694;23.278;2023-12-04T06:48:13;95602.38;;;2.82;61.27
6435;BME280;3250;42.694;23.278;2023-12-04T06:50:38;95605.25;;;2.79;61.37
6435;BME280;3250;42.694;23.278;2023-12-04T06:53:05;95599.09;;;2.80;60.96
6435;BME280;3250;42.694;23.278;2023-12-04T06:55:31;95606.31;;;2.86;60.32
6435;BME280;3250;42.694;23.278;2023-12-04T06:57:56;95608.59;;;2.99;60.58
6435;BME280;3250;42.694;23.278;2023-12-04T07:00:22;95609.13;;;3.02;60.68
6435;BME280;3250;42.694;23.278;2023-12-04T07:02:47;95606.06;;;3.07;60.27
6435;BME280;3250;42.694;23.278;2023-12-04T07:05:13;95606.69;;;3.19;60.72
6435;BME280;3250;42.694;23.278;2023-12-04T07:07:38;95621.97;;;3.22;60.14
6435;BME280;3250;42.694;23.278;2023-12-04T07:10:04;95613.22;;;3.23;59.52
6435;BME280;3250;42.694;23.278;2023-12-04T07:12:30;95622.88;;;3.13;59.93
6435;BME280;3250;42.694;23.278;2023-12-04T07:14:55;95617.75;;;3.21;59.80
6435;BME280;3250;42.694;23.278;2023-12-04T07:17:21;95613.84;;;3.34;60.05
6435;BME280;3250;42.694;23.278;2023-12-04T07:19:47;95622.91;;;3.48;59.29
6435;BME280;3250;42.694;23.278;2023-12-04T07:22:13;95621.88;;;3.59;58.73
6435;BME280;3250;42.694;23.278;2023-12-04T07:24:38;95616.94;;;3.73;59.17
6435;BME280;3250;42.694;23.278;2023-12-04T07:27:04;95617.25;;;3.88;58.97
6435;BME280;3250;42.694;23.278;2023-12-04T07:29:29;95616.34;;;3.97;58.07
6435;BME280;3250;42.694;23.278;2023-12-04T07:31:55;95611.75;;;4.17;58.04
6435;BME280;3250;42.694;23.278;2023-12-04T07:34:20;95621.56;;;4.23;56.61
6435;BME280;3250;42.694;23.278;2023-12-04T07:36:46;95620.47;;;4.34;56.53
6435;BME280;3250;42.694;23.278;2023-12-04T07:39:13;95622.28;;;4.33;55.49
6435;BME280;3250;42.694;23.278;2023-12-04T07:41:40;95610.72;;;4.10;55.58
6435;BME280;3250;42.694;23.278;2023-12-04T07:44:05;95617.78;;;4.17;55.65
6435;BME280;3250;42.694;23.278;2023-12-04T07:46:31;95614.00;;;4.64;55.53
6435;BME280;3250;42.694;23.278;2023-12-04T07:48:57;95611.97;;;5.34;53.46
6435;BME280;3250;42.694;23.278;2023-12-04T07:51:22;95607.25;;;6.42;50.72
6435;BME280;3250;42.694;23.278;2023-12-04T07:53:48;95616.00;;;7.97;47.50
6435;BME280;3250;42.694;23.278;2023-12-04T07:56:14;95613.50;;;10.23;43.24
6435;BME280;3250;42.694;23.278;2023-12-04T07:58:39;95601.88;;;12.29;38.47
6435;BME280;3250;42.694;23.278;2023-12-04T08:01:05;95617.19;;;13.76;34.72
6435;BME280;3250;42.694;23.278;2023-12-04T08:03:31;95622.28;;;14.47;33.36
6435;BME280;3250;42.694;23.278;2023-12-04T08:05:56;95608.69;;;14.43;31.27
6435;BME280;3250;42.694;23.278;2023-12-04T08:08:23;95627.63;;;14.65;30.56
6435;BME280;3250;42.694;23.278;2023-12-04T08:10:49;95618.97;;;14.20;31.32
6435;BME280;3250;42.694;23.278;2023-12-04T08:13:14;95624.97;;;14.09;30.52
6435;BME280;3250;42.694;23.278;2023-12-04T08:15:40;95625.66;;;13.53;30.75
6435;BME280;3250;42.694;23.278;2023-12-04T08:18:06;95628.16;;;13.35;32.76
6435;BME280;3250;42.694;23.278;2023-12-04T08:20:31;95616.63;;;13.23;31.53
6435;BME280;3250;42.694;23.278;2023-12-04T08:22:58;95616.22;;;13.12;32.95
6435;BME280;3250;42.694;23.278;2023-12-04T08:25:23;95597.34;;;12.96;31.61
6435;BME280;3250;42.694;23.278;2023-12-04T08:27:49;95620.56;;;12.28;31.80
6435;BME280;3250;42.694;23.278;2023-12-04T08:30:15;95622.31;;;11.33;34.65
6435;BME280;3250;42.694;23.278;2023-12-04T08:32:40;95608.41;;;10.43;34.92
6435;BME280;3250;42.694;23.278;2023-12-04T08:35:06;95592.94;;;9.91;37.73
6435;BME280;3250;42.694;23.278;2023-12-04T08:37:34;95621.31;;;9.95;37.70
6435;BME280;3250;42.694;23.278;2023-12-04T08:40:00;95620.78;;;9.64;38.39
6435;BME280;3250;42.694;23.278;2023-12-04T08:42:26;95624.69;;;9.32;37.75
6435;BME280;3250;42.694;23.278;2023-12-04T08:44:51;95626.09;;;9.34;38.61
6435;BME280;3250;42.694;23.278;2023-12-04T08:47:17;95615.28;;;9.59;40.18
6435;BME280;3250;42.694;23.278;2023-12-04T08:49:43;95618.75;;;9.80;37.94
6435;BME280;3250;42.694;23.278;2023-12-04T08:52:08;95615.34;;;9.87;37.98
6435;BME280;3250;42.694;23.278;2023-12-04T08:54:34;95616.03;;;9.95;38.11
6435;BME280;3250;42.694;23.278;2023-12-04T08:57:00;95609.25;;;10.01;37.74
6435;BME280;3250;42.694;23.278;2023-12-04T08:59:25;95606.34;;;10.17;38.49
6435;BME280;3250;42.694;23.278;2023-12-04T09:01:51;95618.19;;;10.06;37.14
6435;BME280;3250;42.694;23.278;2023-12-04T09:04:16;95610.53;;;9.90;37.23
6435;BME280;3250;42.694;23.278;2023-12-04T09:06:41;95605.19;;;9.62;38.88
6435;BME280;3250;42.694;23.278;2023-12-04T09:09:07;95577.34;;;9.46;40.11
6435;BME280;3250;42.694;23.278;2023-12-04T09:11:33;95593.03;;;9.76;39.02
6435;BME280;3250;42.694;23.278;2023-12-04T09:13:58;95588.69;;;9.68;39.06
6435;BME280;3250;42.694;23.278;2023-12-04T09:16:24;95587.66;;;9.48;37.36
6435;BME280;3250;42.694;23.278;2023-12-04T09:18:49;95587.72;;;9.33;38.18
6435;BME280;3250;42.694;23.278;2023-12-04T09:21:15;95588.72;;;9.32;39.07
6435;BME280;3250;42.694;23.278;2023-12-04T09:23:42;95585.97;;;9.40;39.21
6435;BME280;3250;42.694;23.278;2023-12-04T09:26:07;95586.44;;;9.29;39.23
6435;BME280;3250;42.694;23.278;2023-12-04T09:28:35;95582.22;;;9.14;38.01
6435;BME280;3250;42.694;23.278;2023-12-04T09:31:00;95584.06;;;8.98;38.99
6435;BME280;3250;42.694;23.278;2023-12-04T09:33:26;95580.72;;;8.90;39.11
6435;BME280;3250;42.694;23.278;2023-12-04T09:35:52;95581.97;;;8.94;40.13
6435;BME280;3250;42.694;23.278;2023-12-04T09:38:18;95579.78;;;9.12;39.49
6435;BME280;3250;42.694;23.278;2023-12-04T09:40:43;95587.56;;;9.05;38.56
6435;BME280;3250;42.694;23.278;2023-12-04T09:43:09;95580.59;;;8.83;39.15
6435;BME280;3250;42.694;23.278;2023-12-04T09:45:35;95559.97;;;8.65;39.36
6435;BME280;3250;42.694;23.278;2023-12-04T09:48:01;95571.66;;;8.63;39.48
6435;BME280;3250;42.694;23.278;2023-12-04T09:50:27;95567.75;;;8.44;39.60
6435;BME280;3250;42.694;23.278;2023-12-04T09:52:53;95567.34;;;8.18;41.40
6435;BME280;3250;42.694;23.278;2023-12-04T09:55:18;95542.75;;;8.19;41.49
6435;BME280;3250;42.694;23.278;2023-12-04T09:57:45;95567.25;;;8.26;40.19
6435;BME280;3250;42.694;23.278;2023-12-04T10:00:13;95566.56;;;8.32;40.68
6435;BME280;3250;42.694;23.278;2023-12-04T10:02:39;95562.44;;;8.15;40.20
6435;BME280;3250;42.694;23.278;2023-12-04T10:05:07;95558.34;;;7.97;40.23
6435;BME280;3250;42.694;23.278;2023-12-04T10:07:33;95538.25;;;7.90;40.79
6435;BME280;3250;42.694;23.278;2023-12-04T10:09:59;95545.66;;;7.86;40.88
6435;BME280;3250;42.694;23.278;2023-12-04T10:12:25;95555.25;;;7.94;42.15
6435;BME280;3250;42.694;23.278;2023-12-04T10:15:07;95558.13;;;7.84;41.08
6435;BME280;3250;42.694;23.278;2023-12-04T10:17:35;95558.19;;;7.76;41.52
6435;BME280;3250;42.694;23.278;2023-12-04T10:22:39;95550.91;;;7.64;41.74
6435;BME280;3250;42.694;23.278;2023-12-04T10:25:15;95545.84;;;7.62;42.47
6435;BME280;3250;42.694;23.278;2023-12-04T10:27:41;95547.53;;;7.55;41.54
6435;BME280;3250;42.694;23.278;2023-12-04T10:30:07;95536.69;;;7.12;40.91
6435;BME280;3250;42.694;23.278;2023-12-04T10:32:37;95545.84;;;7.16;41.17
6435;BME280;3250;42.694;23.278;2023-12-04T10:35:05;95534.53;;;7.16;41.79
6435;BME280;3250;42.694;23.278;2023-12-04T10:37:36;95535.81;;;7.20;42.20
6435;BME280;3250;42.694;23.278;2023-12-04T10:40:02;95531.06;;;7.24;42.78
6435;BME280;3250;42.694;23.278;2023-12-04T10:42:29;95526.22;;;7.12;43.97
6435;BME280;3250;42.694;23.278;2023-12-04T10:44:58;95518.94;;;7.23;42.91
6435;BME280;3250;42.694;23.278;2023-12-04T10:47:24;95522.22;;;7.25;43.30
6435;BME280;3250;42.694;23.278;2023-12-04T10:49:50;95520.31;;;7.10;40.72
6435;BME280;3250;42.694;23.278;2023-12-04T10:52:17;95531.59;;;6.88;42.50
6435;BME280;3250;42.694;23.278;2023-12-04T10:54:47;95521.84;;;6.74;43.34
6435;BME280;3250;42.694;23.278;2023-12-04T10:57:15;95526.31;;;6.65;45.29
6435;BME280;3250;42.694;23.278;2023-12-04T10:59:42;95534.44;;;6.70;43.83
6435;BME280;3250;42.694;23.278;2023-12-04T11:02:14;95527.47;;;6.55;45.11
6435;BME280;3250;42.694;23.278;2023-12-04T11:04:43;95529.16;;;6.31;44.87
6435;BME280;3250;42.694;23.278;2023-12-04T11:07:09;95505.06;;;6.13;47.38
6435;BME280;3250;42.694;23.278;2023-12-04T11:09:35;95515.47;;;6.29;47.70
6435;BME280;3250;42.694;23.278;2023-12-04T11:12:06;95511.66;;;6.40;47.31
6435;BME280;3250;42.694;23.278;2023-12-04T11:14:45;95514.28;;;6.48;46.81
6435;BME280;3250;42.694;23.278;2023-12-04T11:17:14;95506.28;;;6.33;46.42
6435;BME280;3250;42.694;23.278;2023-12-04T11:19:59;95480.47;;;5.59;45.91
6435;BME280;3250;42.694;23.278;2023-12-04T11:22:28;95499.38;;;5.37;48.42
6435;BME280;3250;42.694;23.278;2023-12-04T11:24:55;95499.22;;;5.62;49.09
6435;BME280;3250;42.694;23.278;2023-12-04T11:27:22;95466.75;;;5.49;48.81
6435;BME280;3250;42.694;23.278;2023-12-04T11:29:48;95494.81;;;5.79;48.97
6435;BME280;3250;42.694;23.278;2023-12-04T11:32:15;95492.81;;;5.81;48.65
6435;BME280;3250;42.694;23.278;2023-12-04T11:34:54;95481.91;;;5.94;49.17
6435;BME280;3250;42.694;23.278;2023-12-04T11:37:21;95479.94;;;6.04;49.17
6435;BME280;3250;42.694;23.278;2023-12-04T11:39:47;95479.75;;;6.14;48.17
6435;BME280;3250;42.694;23.278;2023-12-04T11:42:27;95480.88;;;6.11;47.70
6435;BME280;3250;42.694;23.278;2023-12-04T11:44:57;95469.47;;;5.80;48.54
6435;BME280;3250;42.694;23.278;2023-12-04T11:47:22;95467.53;;;5.82;49.76
6435;BME280;3250;42.694;23.278;2023-12-04T11:49:48;95466.69;;;5.97;49.99
6435;BME280;3250;42.694;23.278;2023-12-04T11:52:13;95456.59;;;5.86;49.20
6435;BME280;3250;42.694;23.278;2023-12-04T11:57:24;95450.06;;;5.82;49.09
6435;BME280;3250;42.694;23.278;2023-12-04T11:59:51;95450.41;;;5.95;49.20
6435;BME280;3250;42.694;23.278;2023-12-04T12:02:17;95450.06;;;5.82;50.06
6435;BME280;3250;42.694;23.278;2023-12-04T12:04:43;95435.88;;;5.77;50.02
6435;BME280;3250;42.694;23.278;2023-12-04T12:07:11;95456.75;;;6.01;50.37
6435;BME280;3250;42.694;23.278;2023-12-04T12:09:36;95454.63;;;6.04;48.63
6435;BME280;3250;42.694;23.278;2023-12-04T12:12:03;95446.09;;;6.11;48.38
6435;BME280;3250;42.694;23.278;2023-12-04T12:14:29;95421.84;;;5.78;49.03
6435;BME280;3250;42.694;23.278;2023-12-04T12:16:58;95438.78;;;5.98;49.07
6435;BME280;3250;42.694;23.278;2023-12-04T12:19:24;95431.91;;;6.05;49.00
6435;BME280;3250;42.694;23.278;2023-12-04T12:21:49;95406.09;;;6.02;48.27
6435;BME280;3250;42.694;23.278;2023-12-04T12:24:17;95435.69;;;6.33;48.03
6435;BME280;3250;42.694;23.278;2023-12-04T12:26:42;95433.03;;;6.41;47.71
6435;BME280;3250;42.694;23.278;2023-12-04T12:29:11;95404.66;;;6.38;47.78
6435;BME280;3250;42.694;23.278;2023-12-04T12:31:37;95417.09;;;6.59;48.43
6435;BME280;3250;42.694;23.278;2023-12-04T12:34:03;95415.25;;;6.68;47.80
6435;BME280;3250;42.694;23.278;2023-12-04T12:36:29;95416.56;;;6.72;47.09
6435;BME280;3250;42.694;23.278;2023-12-04T12:38:55;95418.81;;;6.75;47.39
6435;BME280;3250;42.694;23.278;2023-12-04T12:41:21;95416.84;;;6.77;47.15
6435;BME280;3250;42.694;23.278;2023-12-04T12:43:47;95414.69;;;6.80;46.80
6435;BME280;3250;42.694;23.278;2023-12-04T12:46:17;95413.00;;;6.88;46.61
6435;BME280;3250;42.694;23.278;2023-12-04T12:48:43;95406.69;;;6.82;46.91
6435;BME280;3250;42.694;23.278;2023-12-04T12:51:09;95408.13;;;6.85;46.63
6435;BME280;3250;42.694;23.278;2023-12-04T12:53:36;95409.75;;;6.86;45.90
6435;BME280;3250;42.694;23.278;2023-12-04T12:56:02;95401.56;;;6.66;47.26
6435;BME280;3250;42.694;23.278;2023-12-04T12:58:28;95392.94;;;6.57;47.21
6435;BME280;3250;42.694;23.278;2023-12-04T13:00:55;95395.56;;;6.57;48.14
6435;BME280;3250;42.694;23.278;2023-12-04T13:03:20;95384.63;;;6.54;48.34
6435;BME280;3250;42.694;23.278;2023-12-04T13:05:46;95385.31;;;6.48;48.28
6435;BME280;3250;42.694;23.278;2023-12-04T13:08:11;95396.81;;;6.38;48.82
6435;BME280;3250;42.694;23.278;2023-12-04T13:10:38;95378.22;;;6.25;49.13
6435;BME280;3250;42.694;23.278;2023-12-04T13:13:03;95397.38;;;6.18;49.60
6435;BME280;3250;42.694;23.278;2023-12-04T13:15:29;95397.41;;;6.10;50.25
6435;BME280;3250;42.694;23.278;2023-12-04T13:17:55;95392.84;;;6.12;50.22
6435;BME280;3250;42.694;23.278;2023-12-04T13:20:21;95403.38;;;6.26;50.90
6435;BME280;3250;42.694;23.278;2023-12-04T13:22:48;95407.94;;;6.32;50.83